createdAt,value
2019-03-11T00:00:45.204Z,3.10
2019-03-11T00:03:22.113Z,3.10
2019-03-11T00:05:51.618Z,3.00
2019-03-11T00:08:27.401Z,3.00
2019-03-11T00:10:56.902Z,3.10
2019-03-11T00:13:39.210Z,3.00
2019-03-11T00:16:08.800Z,3.00
2019-03-11T00:18:38.314Z,3.00
2019-03-11T00:21:14.168Z,3.00
2019-03-11T00:23:43.619Z,3.00
2019-03-11T00:26:25.645Z,2.90
2019-03-11T00:29:01.255Z,2.90
2019-03-11T00:31:30.759Z,2.90
2019-03-11T00:34:12.793Z,2.90
2019-03-11T00:36:42.300Z,2.90
2019-03-11T00:39:24.480Z,2.80
2019-03-11T00:41:53.917Z,2.90
2019-03-11T00:44:36.786Z,2.80
2019-03-11T00:47:12.518Z,2.70
2019-03-11T00:49:48.055Z,2.70
2019-03-11T00:52:24.048Z,2.60
2019-03-11T00:54:59.850Z,2.60
2019-03-11T00:57:36.201Z,2.70
2019-03-11T01:00:43.670Z,2.70
2019-03-11T01:03:19.497Z,2.60
2019-03-11T01:05:55.055Z,2.60
2019-03-11T01:08:30.782Z,2.60
2019-03-11T01:11:00.223Z,2.60
2019-03-11T01:13:36.209Z,2.60
2019-03-11T01:16:05.863Z,2.50
2019-03-11T01:18:41.672Z,2.50
2019-03-11T01:21:17.468Z,2.50
2019-03-11T01:23:53.236Z,2.40
2019-03-11T01:26:29.875Z,2.30
2019-03-11T01:29:06.498Z,2.30
2019-03-11T01:31:42.884Z,2.20
2019-03-11T01:34:19.402Z,2.30
2019-03-11T01:36:55.685Z,2.30
2019-03-11T01:39:31.376Z,2.20
2019-03-11T01:42:00.893Z,2.20
2019-03-11T01:44:37.358Z,2.20
2019-03-11T01:47:13.870Z,2.10
2019-03-11T01:49:49.908Z,2.10
2019-03-11T01:52:19.346Z,2.10
2019-03-11T01:54:48.784Z,2.00
2019-03-11T01:57:24.755Z,2.10
2019-03-11T01:59:54.194Z,2.10
2019-03-11T02:02:36.282Z,2.10
2019-03-11T02:05:07.308Z,2.10
2019-03-11T02:07:43.070Z,2.20
2019-03-11T02:10:24.340Z,2.20
2019-03-11T02:12:53.792Z,2.20
2019-03-11T02:15:29.543Z,2.20
2019-03-11T02:17:59.074Z,2.20
2019-03-11T02:20:41.595Z,2.10
2019-03-11T02:23:17.316Z,2.10
2019-03-11T02:25:52.790Z,2.10
2019-03-11T02:28:22.296Z,2.10
2019-03-11T02:30:58.351Z,2.20
2019-03-11T02:33:27.932Z,2.20
2019-03-11T02:35:57.388Z,2.10
2019-03-11T02:38:33.108Z,2.20
2019-03-11T02:41:15.557Z,2.30
2019-03-11T02:43:45.071Z,2.20
2019-03-11T02:46:27.175Z,2.30
2019-03-11T02:49:03.418Z,2.30
2019-03-11T02:51:39.775Z,2.10
2019-03-11T02:54:09.204Z,2.10
2019-03-11T02:56:45.329Z,2.10
2019-03-11T02:59:21.598Z,2.10
2019-03-11T03:02:05.234Z,2.10
2019-03-11T03:04:35.773Z,2.10
2019-03-11T03:07:12.053Z,2.10
2019-03-11T03:09:41.804Z,2.10
2019-03-11T03:12:11.491Z,2.10
2019-03-11T03:14:47.153Z,2.10
2019-03-11T03:17:29.094Z,2.00
2019-03-11T03:19:58.523Z,2.00
2019-03-11T03:22:34.073Z,2.00
2019-03-11T03:25:11.037Z,1.90
2019-03-11T03:27:40.510Z,2.00
2019-03-11T03:30:26.165Z,1.80
2019-03-11T03:33:01.861Z,1.80
2019-03-11T03:35:38.410Z,1.80
2019-03-11T03:38:28.835Z,1.70
2019-03-11T03:40:58.991Z,1.70
2019-03-11T03:43:28.424Z,1.70
2019-03-11T03:46:18.586Z,1.70
2019-03-11T03:48:55.760Z,1.60
2019-03-11T03:51:25.200Z,1.60
2019-03-11T03:54:07.612Z,1.50
2019-03-11T03:56:44.135Z,1.60
2019-03-11T03:59:13.584Z,1.60
2019-03-11T04:01:49.302Z,1.50
2019-03-11T04:04:18.747Z,1.50
2019-03-11T04:06:54.774Z,1.50
2019-03-11T04:09:24.203Z,1.50
2019-03-11T04:11:53.636Z,1.40
2019-03-11T04:14:29.185Z,1.40
2019-03-11T04:16:58.833Z,1.40
2019-03-11T04:19:40.904Z,1.30
2019-03-11T04:22:10.469Z,1.40
2019-03-11T04:24:47.081Z,1.40
2019-03-11T04:27:30.477Z,1.30
2019-03-11T04:30:06.911Z,1.30
2019-03-11T04:32:36.411Z,1.20
2019-03-11T04:35:14.365Z,1.20
2019-03-11T04:37:43.939Z,1.20
2019-03-11T04:40:21.420Z,1.10
2019-03-11T04:42:50.923Z,1.10
2019-03-11T04:45:26.781Z,1.10
2019-03-11T04:48:03.219Z,1.00
2019-03-11T04:50:46.024Z,1.00
2019-03-11T04:53:22.190Z,0.90
2019-03-11T04:55:51.700Z,0.90
2019-03-11T04:58:21.138Z,0.90
2019-03-11T05:00:57.091Z,0.80
2019-03-11T05:03:26.594Z,0.80
2019-03-11T05:06:02.571Z,0.70
2019-03-11T05:08:32.004Z,0.70
2019-03-11T05:11:08.416Z,0.70
2019-03-11T05:13:37.887Z,0.70
2019-03-11T05:16:13.813Z,0.60
2019-03-11T05:18:49.277Z,0.60
2019-03-11T05:21:25.267Z,0.50
2019-03-11T05:23:54.711Z,0.50
2019-03-11T05:26:30.774Z,0.50
2019-03-11T05:29:07.220Z,0.50
2019-03-11T05:31:43.204Z,0.40
2019-03-11T05:34:12.646Z,0.30
2019-03-11T05:36:48.946Z,0.30
2019-03-11T05:39:18.391Z,0.30
2019-03-11T05:41:54.532Z,0.20
2019-03-11T05:44:24.038Z,0.30
2019-03-11T05:46:53.491Z,0.30
2019-03-11T05:49:29.891Z,0.30
2019-03-11T05:52:05.542Z,0.30
2019-03-11T05:54:41.634Z,0.40
2019-03-11T05:57:17.592Z,0.40
2019-03-11T05:59:47.029Z,0.60
2019-03-11T06:02:23.063Z,0.60
2019-03-11T06:04:52.502Z,0.70
2019-03-11T06:07:28.437Z,0.80
2019-03-11T06:09:57.886Z,0.90
2019-03-11T06:12:27.388Z,0.90
2019-03-11T06:15:03.310Z,1.10
2019-03-11T06:17:39.081Z,1.20
2019-03-11T06:20:18.201Z,1.20
2019-03-11T06:22:54.129Z,1.30
2019-03-11T06:25:30.422Z,1.40
2019-03-11T06:28:06.787Z,1.40
2019-03-11T06:30:43.591Z,1.50
2019-03-11T06:33:13.032Z,1.50
2019-03-11T06:35:42.481Z,1.60
2019-03-11T06:38:18.473Z,1.60
2019-03-11T06:40:47.939Z,1.70
2019-03-11T06:43:24.026Z,1.60
2019-03-11T06:45:53.453Z,1.80
2019-03-11T06:48:36.235Z,1.80
2019-03-11T06:51:18.792Z,1.80
2019-03-11T06:53:48.234Z,1.80
2019-03-11T06:56:24.278Z,1.90
2019-03-11T06:58:53.711Z,1.90
2019-03-11T07:01:29.859Z,2.00
2019-03-11T07:03:59.317Z,2.10
2019-03-11T07:06:35.428Z,2.30
2019-03-11T07:09:14.030Z,2.40
2019-03-11T07:11:43.666Z,2.50
2019-03-11T07:14:19.358Z,2.40
2019-03-11T07:16:54.948Z,2.30
2019-03-11T07:19:31.541Z,2.40
2019-03-11T07:22:07.382Z,2.70
2019-03-11T07:24:36.820Z,2.80
2019-03-11T07:27:13.281Z,2.90
2019-03-11T07:29:55.232Z,2.80
2019-03-11T07:32:24.668Z,2.90
2019-03-11T07:35:08.370Z,2.90
2019-03-11T07:37:38.580Z,3.00
2019-03-11T07:40:11.872Z,3.10
2019-03-11T07:42:47.551Z,3.10
2019-03-11T07:45:24.337Z,3.10
2019-03-11T07:47:53.776Z,3.30
2019-03-11T07:50:36.006Z,3.30
2019-03-11T07:53:11.479Z,3.30
2019-03-11T07:55:47.462Z,3.50
2019-03-11T07:58:16.964Z,3.60
2019-03-11T08:00:53.802Z,3.60
2019-03-11T08:03:23.665Z,3.80
2019-03-11T08:06:00.126Z,4.10
2019-03-11T08:08:29.558Z,4.10
2019-03-11T08:11:05.999Z,3.80
2019-03-11T08:13:41.779Z,3.60
2019-03-11T08:16:11.219Z,3.60
2019-03-11T08:18:40.649Z,3.60
2019-03-11T08:21:16.430Z,3.70
2019-03-11T08:23:45.868Z,3.90
2019-03-11T08:26:15.301Z,3.60
2019-03-11T08:28:58.050Z,3.70
2019-03-11T08:31:33.910Z,3.70
2019-03-11T08:34:03.411Z,3.60
2019-03-11T08:36:39.991Z,4.00
2019-03-11T08:39:11.436Z,4.10
2019-03-11T08:41:40.938Z,4.20
2019-03-11T08:44:22.884Z,4.10
2019-03-11T08:46:52.332Z,3.90
2019-03-11T08:49:21.785Z,4.10
2019-03-11T08:51:58.589Z,4.20
2019-03-11T08:54:28.024Z,4.30
2019-03-11T08:57:04.298Z,4.30
2019-03-11T08:59:33.739Z,4.40
2019-03-11T09:02:10.281Z,4.70
2019-03-11T09:04:45.875Z,4.80
2019-03-11T09:07:15.319Z,4.80
2019-03-11T09:09:44.754Z,4.80
2019-03-11T09:12:21.206Z,4.50
2019-03-11T09:14:57.124Z,4.40
2019-03-11T09:17:32.667Z,4.60
2019-03-11T09:20:02.174Z,4.60
2019-03-11T09:22:38.654Z,4.40
2019-03-11T09:25:16.954Z,4.40
2019-03-11T09:27:53.508Z,4.70
2019-03-11T09:30:24.061Z,4.90
2019-03-11T09:33:08.412Z,4.90
2019-03-11T09:35:44.334Z,5.10
2019-03-11T09:38:20.779Z,5.20
2019-03-11T09:40:50.283Z,5.10
2019-03-11T09:43:27.342Z,4.80
2019-03-11T09:45:56.873Z,4.90
2019-03-11T09:48:32.892Z,4.90
2019-03-11T09:51:15.347Z,5.00
2019-03-11T09:53:50.784Z,5.10
2019-03-11T09:56:26.460Z,5.00
2019-03-11T09:59:02.286Z,4.90
2019-03-11T10:01:31.875Z,5.10
2019-03-11T10:04:09.518Z,5.30
2019-03-11T10:06:45.999Z,5.40
2019-03-11T10:09:22.516Z,5.10
2019-03-11T10:11:59.046Z,5.20
2019-03-11T10:14:28.484Z,5.30
2019-03-11T10:16:57.942Z,5.10
2019-03-11T10:19:34.230Z,5.20
2019-03-11T10:22:03.680Z,5.40
2019-03-11T10:24:39.695Z,5.70
2019-03-11T10:27:22.210Z,5.60
2019-03-11T10:29:57.856Z,5.50
2019-03-11T10:32:27.368Z,5.40
2019-03-11T10:35:03.134Z,5.50
2019-03-11T10:37:46.418Z,5.50
2019-03-11T10:40:37.984Z,5.30
2019-03-11T10:43:14.569Z,5.10
2019-03-11T10:45:50.518Z,5.10
2019-03-11T10:48:36.844Z,5.10
2019-03-11T10:50:58.375Z,5.30
2019-03-11T10:53:40.538Z,5.30
2019-03-11T10:56:16.082Z,5.20
2019-03-11T10:58:45.533Z,5.20
2019-03-11T11:01:22.006Z,5.40
2019-03-11T11:03:57.612Z,5.60
2019-03-11T11:06:33.332Z,5.50
2019-03-11T11:09:03.551Z,5.70
2019-03-11T11:11:39.615Z,5.70
2019-03-11T11:14:16.289Z,5.70
2019-03-11T11:16:46.591Z,5.60
2019-03-11T11:19:16.113Z,5.80
2019-03-11T11:21:51.789Z,5.90
2019-03-11T11:24:21.247Z,6.00
2019-03-11T11:26:50.744Z,6.00
2019-03-11T11:29:27.109Z,5.90
2019-03-11T11:32:03.103Z,5.60
2019-03-11T11:34:39.878Z,5.60
2019-03-11T11:37:16.196Z,5.40
2019-03-11T11:39:52.355Z,5.50
2019-03-11T11:42:21.934Z,5.80
2019-03-11T11:44:58.451Z,5.90
2019-03-11T11:47:34.817Z,6.00
2019-03-11T11:50:07.024Z,6.00
2019-03-11T11:52:43.049Z,5.90
2019-03-11T11:55:20.311Z,5.90
2019-03-11T11:57:56.498Z,5.90
2019-03-11T12:00:37.129Z,5.90
2019-03-11T12:03:13.773Z,6.00
2019-03-11T12:05:50.069Z,6.00
2019-03-11T12:08:19.501Z,6.00
2019-03-11T12:10:55.528Z,6.10
2019-03-11T12:13:32.200Z,6.20
2019-03-11T12:16:01.725Z,6.10
2019-03-11T12:18:37.767Z,6.00
2019-03-11T12:21:07.271Z,6.00
2019-03-11T12:23:46.704Z,6.00
2019-03-11T12:26:27.820Z,6.30
2019-03-11T12:28:57.257Z,6.20
2019-03-11T12:31:33.625Z,6.30
2019-03-11T12:34:16.903Z,6.30
2019-03-11T12:36:52.570Z,6.50
2019-03-11T12:39:22.217Z,6.40
2019-03-11T12:41:58.070Z,6.50
2019-03-11T12:44:27.577Z,6.50
2019-03-11T12:47:03.906Z,6.50
2019-03-11T12:49:33.407Z,6.30
2019-03-11T12:52:09.244Z,6.50
2019-03-11T12:54:45.329Z,6.70
2019-03-11T12:57:27.916Z,6.80
2019-03-11T12:59:57.424Z,6.80
2019-03-11T13:02:33.948Z,7.00
2019-03-11T13:05:04.029Z,7.00
2019-03-11T13:07:33.536Z,6.80
2019-03-11T13:10:10.549Z,6.90
2019-03-11T13:12:40.124Z,6.80
2019-03-11T13:15:20.009Z,6.90
2019-03-11T13:17:55.943Z,6.80
2019-03-11T13:20:48.294Z,6.90
2019-03-11T13:23:17.825Z,7.00
2019-03-11T13:25:53.971Z,7.10
2019-03-11T13:28:23.485Z,6.90
2019-03-11T13:30:59.860Z,6.80
2019-03-11T13:33:36.020Z,6.60
2019-03-11T13:36:08.344Z,6.60
2019-03-11T13:38:38.504Z,6.70
2019-03-11T13:41:21.079Z,6.70
2019-03-11T13:43:56.791Z,6.80
2019-03-11T13:46:26.444Z,6.80
2019-03-11T13:49:02.716Z,7.00
2019-03-11T13:51:32.154Z,6.90
2019-03-11T13:54:22.661Z,6.70
2019-03-11T13:57:12.085Z,6.60
2019-03-11T13:59:41.598Z,6.40
2019-03-11T14:02:17.352Z,6.50
2019-03-11T14:04:53.941Z,6.30
2019-03-11T14:07:23.386Z,6.20
2019-03-11T14:09:59.935Z,6.20
2019-03-11T14:12:29.386Z,6.30
2019-03-11T14:15:05.822Z,6.40
2019-03-11T14:17:35.556Z,6.70
2019-03-11T14:20:08.607Z,6.90
2019-03-11T14:22:44.736Z,6.90
2019-03-11T14:25:15.509Z,6.70
2019-03-11T14:27:45.099Z,6.70
2019-03-11T14:30:30.166Z,6.60
2019-03-11T14:32:59.739Z,6.40
2019-03-11T14:35:36.112Z,6.40
2019-03-11T14:38:05.701Z,6.30
2019-03-11T14:40:42.196Z,6.50
2019-03-11T14:43:11.727Z,6.70
2019-03-11T14:45:47.260Z,6.80
2019-03-11T14:48:16.781Z,6.90
2019-03-11T14:50:55.071Z,6.70
2019-03-11T14:53:24.634Z,6.70
2019-03-11T14:56:07.334Z,6.60
2019-03-11T14:58:49.847Z,6.50
2019-03-11T15:01:19.431Z,6.60
2019-03-11T15:03:48.887Z,6.70
2019-03-11T15:06:24.675Z,6.70
2019-03-11T15:09:00.559Z,6.70
2019-03-11T15:11:30.084Z,6.80
2019-03-11T15:14:06.469Z,6.80
2019-03-11T15:16:42.830Z,6.80
2019-03-11T15:19:21.457Z,6.80
2019-03-11T15:21:50.898Z,6.80
2019-03-11T15:24:27.006Z,6.70
2019-03-11T15:26:56.579Z,6.50
2019-03-11T15:29:26.395Z,6.50
2019-03-11T15:32:08.965Z,6.20
2019-03-11T15:34:38.411Z,6.10
2019-03-11T15:37:15.092Z,6.10
2019-03-11T15:39:50.806Z,6.10
2019-03-11T15:42:26.877Z,6.20
2019-03-11T15:45:02.918Z,6.10
2019-03-11T15:47:38.676Z,6.00
2019-03-11T15:50:27.500Z,6.00
2019-03-11T15:53:10.224Z,5.90
2019-03-11T15:55:46.829Z,5.90
2019-03-11T15:58:29.872Z,5.90
2019-03-11T16:00:59.406Z,5.80
2019-03-11T16:03:36.716Z,5.70
2019-03-11T16:06:13.303Z,5.70
2019-03-11T16:08:42.899Z,5.70
2019-03-11T16:11:19.804Z,5.60
2019-03-11T16:13:49.397Z,5.60
2019-03-11T16:16:25.148Z,5.40
2019-03-11T16:19:01.410Z,5.40
2019-03-11T16:21:38.678Z,5.30
2019-03-11T16:24:15.257Z,5.30
2019-03-11T16:26:51.590Z,5.30
2019-03-11T16:29:28.142Z,5.20
2019-03-11T16:31:57.670Z,5.20
2019-03-11T16:34:35.584Z,5.20
2019-03-11T16:37:12.078Z,5.20
2019-03-11T16:39:41.600Z,5.10
2019-03-11T16:42:11.266Z,5.10
2019-03-11T16:44:53.355Z,5.00
2019-03-11T16:47:23.144Z,5.00
2019-03-11T16:49:59.094Z,4.90
2019-03-11T16:52:28.689Z,4.90
2019-03-11T16:55:04.810Z,4.80
2019-03-11T16:57:41.043Z,4.70
2019-03-11T17:00:37.337Z,4.60
2019-03-11T17:03:07.580Z,4.50
2019-03-11T17:05:43.879Z,4.40
2019-03-11T17:08:13.546Z,4.40
2019-03-11T17:10:43.584Z,4.30
2019-03-11T17:13:20.035Z,4.30
2019-03-11T17:15:56.625Z,4.20
2019-03-11T17:18:26.071Z,4.10
2019-03-11T17:21:01.931Z,4.00
2019-03-11T17:23:38.280Z,3.90
2019-03-11T17:26:07.885Z,3.80
2019-03-11T17:28:44.054Z,3.80
2019-03-11T17:31:13.735Z,3.70
2019-03-11T17:33:50.581Z,3.70
2019-03-11T17:36:27.235Z,3.70
2019-03-11T17:39:03.778Z,3.70
2019-03-11T17:41:47.177Z,3.70
2019-03-11T17:44:22.979Z,3.80
2019-03-11T17:46:52.976Z,3.70
2019-03-11T17:49:29.618Z,3.60
2019-03-11T17:52:05.917Z,3.60
2019-03-11T17:54:42.233Z,3.50
2019-03-11T17:57:11.723Z,3.50
2019-03-11T17:59:54.014Z,3.50
2019-03-11T18:02:37.443Z,3.40
2019-03-11T18:05:14.266Z,3.40
2019-03-11T18:07:50.865Z,3.30
2019-03-11T18:10:26.644Z,3.30
2019-03-11T18:12:56.588Z,3.30
2019-03-11T18:15:33.266Z,3.30
2019-03-11T18:18:03.012Z,3.20
2019-03-11T18:20:39.588Z,3.20
2019-03-11T18:23:09.258Z,3.20
2019-03-11T18:25:45.117Z,3.20
2019-03-11T18:28:14.861Z,3.20
2019-03-11T18:30:51.990Z,3.10
2019-03-11T18:33:21.675Z,3.10
2019-03-11T18:35:57.984Z,3.00
2019-03-11T18:38:27.694Z,3.00
2019-03-11T18:41:04.233Z,3.00
2019-03-11T18:43:42.132Z,3.00
2019-03-11T18:46:05.022Z,3.00
2019-03-11T18:48:41.420Z,3.00
2019-03-11T18:51:17.998Z,3.00
2019-03-11T18:53:54.572Z,3.00
2019-03-11T18:56:30.581Z,2.90
2019-03-11T18:59:07.456Z,2.90
2019-03-11T19:01:43.751Z,3.00
2019-03-11T19:04:20.191Z,2.90
2019-03-11T19:06:50.048Z,2.90
2019-03-11T19:09:26.314Z,2.90
2019-03-11T19:12:02.908Z,2.90
2019-03-11T19:14:32.665Z,2.80
2019-03-11T19:17:09.319Z,2.90
2019-03-11T19:19:46.031Z,2.70
2019-03-11T19:22:16.554Z,2.80
2019-03-11T19:24:53.144Z,2.80
2019-03-11T19:27:29.253Z,2.80
2019-03-11T19:30:05.818Z,2.70
2019-03-11T19:32:49.165Z,2.70
2019-03-11T19:35:20.111Z,2.70
2019-03-11T19:37:56.523Z,2.80
2019-03-11T19:40:33.663Z,2.80
2019-03-11T19:43:03.493Z,2.80
2019-03-11T19:45:40.369Z,2.60
2019-03-11T19:48:10.272Z,2.50
2019-03-11T19:50:39.950Z,2.40
2019-03-11T19:53:16.500Z,2.40
2019-03-11T19:55:52.889Z,2.40
2019-03-11T19:58:36.194Z,2.30
2019-03-11T20:01:19.255Z,2.30
2019-03-11T20:03:55.034Z,2.20
2019-03-11T20:06:31.119Z,2.00
2019-03-11T20:09:01.043Z,2.00
2019-03-11T20:11:30.937Z,1.90
2019-03-11T20:14:07.106Z,1.90
2019-03-11T20:16:36.680Z,1.80
2019-03-11T20:19:13.108Z,1.70
2019-03-11T20:21:42.764Z,1.60
2019-03-11T20:24:12.300Z,1.60
2019-03-11T20:26:48.968Z,1.50
2019-03-11T20:29:25.051Z,1.50
2019-03-11T20:31:54.805Z,1.40
2019-03-11T20:34:24.494Z,1.50
2019-03-11T20:37:01.341Z,1.50
2019-03-11T20:39:37.664Z,1.60
2019-03-11T20:42:07.486Z,1.60
2019-03-11T20:44:43.588Z,1.60
2019-03-11T20:47:13.130Z,1.60
2019-03-11T20:49:42.705Z,1.60
2019-03-11T20:52:18.407Z,1.50
2019-03-11T20:54:47.855Z,1.40
2019-03-11T20:57:24.149Z,1.30
2019-03-11T21:00:00.837Z,1.30
2019-03-11T21:02:44.085Z,1.30
2019-03-11T21:05:35.357Z,1.20
2019-03-11T21:08:10.758Z,1.10
2019-03-11T21:10:40.412Z,1.10
2019-03-11T21:13:17.302Z,1.10
2019-03-11T21:15:46.932Z,1.00
2019-03-11T21:18:22.951Z,1.00
2019-03-11T21:21:04.214Z,1.00
2019-03-11T21:23:30.375Z,1.00
2019-03-11T21:25:59.969Z,1.00
2019-03-11T21:28:36.413Z,1.00
2019-03-11T21:31:06.018Z,1.00
2019-03-11T21:33:41.747Z,1.00
2019-03-11T21:36:25.066Z,1.00
2019-03-11T21:38:54.826Z,0.90
2019-03-11T21:41:30.999Z,0.90
2019-03-11T21:44:06.661Z,0.80
2019-03-11T21:46:36.251Z,0.90
2019-03-11T21:49:12.185Z,0.90
2019-03-11T21:51:48.726Z,0.90
2019-03-11T21:54:25.389Z,0.90
2019-03-11T21:56:55.105Z,0.80
2019-03-11T21:59:30.932Z,0.70
2019-03-11T22:02:00.430Z,0.70
2019-03-11T22:04:43.228Z,0.70
2019-03-11T22:07:12.816Z,0.70
2019-03-11T22:09:48.849Z,0.70
2019-03-11T22:12:24.879Z,0.70
2019-03-11T22:15:00.675Z,0.60
2019-03-11T22:17:30.198Z,0.60
2019-03-11T22:19:59.635Z,0.50
2019-03-11T22:22:36.124Z,0.50
2019-03-11T22:25:15.613Z,0.50
2019-03-11T22:27:51.267Z,0.50
2019-03-11T22:30:29.776Z,0.40
2019-03-11T22:33:06.322Z,0.50
2019-03-11T22:35:42.941Z,0.50
2019-03-11T22:38:12.421Z,0.50
2019-03-11T22:40:41.927Z,0.50
2019-03-11T22:43:17.928Z,0.60
2019-03-11T22:46:02.459Z,0.60
2019-03-11T22:48:31.906Z,0.60
2019-03-11T22:51:08.513Z,0.60
2019-03-11T22:53:37.958Z,0.60
2019-03-11T22:56:14.634Z,0.70
2019-03-11T22:58:44.146Z,0.70
2019-03-11T23:01:13.991Z,0.70
2019-03-11T23:03:50.799Z,0.70
2019-03-11T23:06:33.642Z,0.70
2019-03-11T23:09:04.372Z,0.70
2019-03-11T23:11:34.047Z,0.70
2019-03-11T23:14:10.299Z,0.70
2019-03-11T23:16:46.319Z,0.70
2019-03-11T23:19:15.774Z,0.70
2019-03-11T23:21:45.219Z,0.70
2019-03-11T23:24:21.376Z,0.70
2019-03-11T23:26:50.876Z,0.70
2019-03-11T23:29:20.342Z,0.70
2019-03-11T23:31:56.054Z,0.70
2019-03-11T23:34:31.577Z,0.70
2019-03-11T23:37:07.677Z,0.60
2019-03-11T23:39:43.219Z,0.60
2019-03-11T23:42:19.970Z,0.60
2019-03-11T23:44:49.416Z,0.60
2019-03-11T23:47:25.818Z,0.60
2019-03-11T23:49:55.272Z,0.50
2019-03-11T23:52:31.329Z,0.50
2019-03-11T23:55:16.147Z,0.50
2019-03-11T23:57:51.929Z,0.50
